Time;durP1;ratioP1;P1;durP2;ratioP2;P2;SDS_P1;SDS_P2;PMS_P1;PMS_P2;Temp;Humidity;BMP_temperature;BMP_pressure;BME280_temperature;BME280_humidity;BME280_pressure;Samples;Min_cycle;Max_cycle;Signal;HPM_P1;HPM_P2
2021/08/26 00:06:44;;;;;;;;;17.25;15.50;;;;;;;;5057656;27;53153;-81
2021/08/26 00:09:09;;;;;;;;;17.33;15.67;;;;;;;;5051172;27;45396;-81
2021/08/26 00:11:35;;;;;;;;;18.00;15.00;;;;;;;;5054655;28;46813;-82
2021/08/26 00:14:01;;;;;;;;;15.25;14.75;;;;;;;;5054861;27;45548;-81
2021/08/26 00:16:26;;;;;;;;;15.00;15.00;;;;;;;;5046999;27;45567;-80
2021/08/26 00:18:52;;;;;;;;;17.50;15.25;;;;;;;;5058197;27;45396;-83
2021/08/26 00:21:18;;;;;;;;;19.50;16.00;;;;;;;;5055125;27;45708;-81
2021/08/26 00:23:43;;;;;;;;;17.75;14.75;;;;;;;;5051510;27;45766;-82
2021/08/26 00:26:09;;;;;;;;;21.00;15.50;;;;;;;;5053839;27;46417;-80
2021/08/26 00:28:34;;;;;;;;;19.50;15.75;;;;;;;;5048735;27;47347;-81
2021/08/26 00:31:00;;;;;;;;;17.00;14.50;;;;;;;;5053046;27;45741;-82
2021/08/26 00:33:25;;;;;;;;;20.75;16.00;;;;;;;;5054305;27;45500;-82
2021/08/26 00:35:51;;;;;;;;;16.25;16.25;;;;;;;;5057565;27;46682;-82
2021/08/26 00:38:16;;;;;;;;;21.00;17.00;;;;;;;;5055415;28;45545;-81
2021/08/26 00:40:41;;;;;;;;;17.50;16.00;;;;;;;;5058686;27;45623;-81
2021/08/26 00:43:07;;;;;;;;;17.00;16.75;;;;;;;;5048929;27;45817;-81
2021/08/26 00:45:33;;;;;;;;;18.75;17.25;;;;;;;;5050732;27;46634;-81
2021/08/26 00:47:58;;;;;;;;;15.00;15.00;;;;;;;;5058973;27;45664;-82
2021/08/26 00:50:24;;;;;;;;;16.25;15.50;;;;;;;;5051900;27;45485;-81
2021/08/26 00:52:49;;;;;;;;;18.00;16.00;;;;;;;;5051969;27;52218;-82
2021/08/26 00:55:15;;;;;;;;;16.67;14.00;;;;;;;;5051363;27;47452;-80
2021/08/26 00:57:40;;;;;;;;;16.50;14.50;;;;;;;;5050515;27;45961;-83
2021/08/26 01:00:07;;;;;;;;;21.50;16.00;;;;;;;;5052471;27;46402;-82
2021/08/26 01:02:41;;;;;;;;;17.00;14.25;;;;;;;;5049452;27;45602;-81
2021/08/26 01:05:25;;;;;;;;;19.00;15.00;;;;;;;;5062411;27;47960;-82
2021/08/26 01:07:58;;;;;;;;;15.75;12.50;;;;;;;;5057510;27;45719;-81
2021/08/26 01:10:24;;;;;;;;;14.75;12.25;;;;;;;;5047643;27;45940;-81
2021/08/26 01:12:51;;;;;;;;;14.25;11.50;;;;;;;;5049205;28;45493;-82
2021/08/26 01:15:16;;;;;;;;;13.50;13.25;;;;;;;;5062411;27;48336;-84
2021/08/26 01:17:47;;;;;;;;;11.33;11.33;;;;;;;;5049168;27;45500;-84
2021/08/26 01:20:14;;;;;;;;;15.50;12.75;;;;;;;;5054047;27;45761;-83
2021/08/26 01:22:39;;;;;;;;;11.75;11.00;;;;;;;;5049533;27;45963;-84
2021/08/26 01:25:07;;;;;;;;;13.25;9.50;;;;;;;;5049228;27;46708;-83
2021/08/26 01:27:34;;;;;;;;;12.75;12.00;;;;;;;;5055302;27;46114;-83
2021/08/26 01:30:01;;;;;;;;;12.00;10.25;;;;;;;;5048481;27;45674;-83
2021/08/26 01:32:28;;;;;;;;;11.25;10.25;;;;;;;;5048683;27;45619;-84
2021/08/26 01:34:53;;;;;;;;;11.25;8.00;;;;;;;;5056320;27;48302;-83
2021/08/26 01:37:19;;;;;;;;;9.00;8.00;;;;;;;;5045611;27;45632;-83
2021/08/26 01:39:45;;;;;;;;;9.50;9.25;;;;;;;;5060666;27;45813;-84
2021/08/26 01:42:10;;;;;;;;;10.00;8.25;;;;;;;;5050494;27;45461;-83
2021/08/26 01:44:36;;;;;;;;;12.00;10.00;;;;;;;;5048339;27;45558;-83
2021/08/26 01:47:05;;;;;;;;;8.67;8.67;;;;;;;;5054914;27;45910;-83
2021/08/26 01:49:30;;;;;;;;;9.75;7.75;;;;;;;;5059021;27;45598;-84
2021/08/26 01:51:56;;;;;;;;;8.00;8.00;;;;;;;;5048525;27;45488;-84
2021/08/26 01:54:21;;;;;;;;;9.67;8.00;;;;;;;;5064635;27;46913;-83
2021/08/26 01:56:46;;;;;;;;;14.33;9.33;;;;;;;;5045396;27;45808;-84
2021/08/26 01:59:11;;;;;;;;;7.00;7.00;;;;;;;;5049236;27;45471;-84
2021/08/26 02:01:37;;;;;;;;;8.00;8.00;;;;;;;;5048879;27;45599;-84
2021/08/26 02:04:03;;;;;;;;;11.75;10.00;;;;;;;;5051137;27;46238;-84
2021/08/26 02:06:29;;;;;;;;;8.75;7.50;;;;;;;;5068613;22;45997;-84
2021/08/26 02:08:54;;;;;;;;;7.67;7.67;;;;;;;;5064023;27;45679;-85
2021/08/26 02:11:19;;;;;;;;;11.50;9.75;;;;;;;;5054281;27;45631;-85
2021/08/26 02:13:44;;;;;;;;;7.00;7.00;;;;;;;;5063312;27;47987;-86
2021/08/26 02:16:10;;;;;;;;;9.00;8.33;;;;;;;;5055051;27;45588;-86
2021/08/26 02:18:35;;;;;;;;;15.00;9.75;;;;;;;;5065957;27;45581;-86
2021/08/26 02:21:00;;;;;;;;;13.00;9.00;;;;;;;;5063067;27;45611;-85
2021/08/26 02:23:25;;;;;;;;;10.67;9.00;;;;;;;;5062869;27;46149;-85
2021/08/26 02:25:50;;;;;;;;;7.67;7.67;;;;;;;;5065982;27;45615;-85
2021/08/26 02:28:16;;;;;;;;;12.00;9.00;;;;;;;;5211088;22;45809;-86
2021/08/26 02:30:41;;;;;;;;;10.00;9.00;;;;;;;;5066449;27;45612;-86
2021/08/26 02:33:06;;;;;;;;;11.25;8.00;;;;;;;;5067355;27;46878;-85
2021/08/26 02:35:31;;;;;;;;;10.33;9.00;;;;;;;;5060897;27;45662;-85
2021/08/26 02:37:57;;;;;;;;;11.00;8.00;;;;;;;;5064493;27;45422;-85
2021/08/26 02:40:22;;;;;;;;;10.67;9.00;;;;;;;;5063738;27;45489;-86
2021/08/26 02:42:47;;;;;;;;;10.75;9.75;;;;;;;;5063183;27;47249;-86
2021/08/26 02:45:12;;;;;;;;;10.25;8.50;;;;;;;;5060668;27;45654;-87
2021/08/26 02:47:38;;;;;;;;;9.75;9.50;;;;;;;;5063036;27;45575;-86
2021/08/26 02:50:03;;;;;;;;;11.50;8.25;;;;;;;;5064337;27;45583;-85
2021/08/26 02:52:28;;;;;;;;;13.50;9.25;;;;;;;;5063473;27;45473;-85
2021/08/26 02:54:53;;;;;;;;;9.75;8.50;;;;;;;;5066062;27;45462;-86
2021/08/26 02:57:19;;;;;;;;;15.00;11.33;;;;;;;;5062147;27;44939;-86
2021/08/26 02:59:44;;;;;;;;;6.00;5.67;;;;;;;;5065048;27;52665;-85
2021/08/26 03:02:09;;;;;;;;;9.33;9.00;;;;;;;;5071141;27;45730;-85
2021/08/26 03:04:34;;;;;;;;;10.75;9.50;;;;;;;;5068204;27;45686;-85
2021/08/26 03:07:00;;;;;;;;;14.00;9.67;;;;;;;;5065350;27;45451;-86
2021/08/26 03:09:25;;;;;;;;;8.00;7.25;;;;;;;;5059270;27;45710;-86
2021/08/26 03:11:50;;;;;;;;;14.67;9.33;;;;;;;;5062571;27;46571;-86
2021/08/26 03:14:15;;;;;;;;;10.33;8.00;;;;;;;;5061879;27;45344;-85
2021/08/26 03:19:13;;;;;;;;;16.25;10.00;;;;;;;;5022693;28;46908;-86
2021/08/26 03:21:38;;;;;;;;;8.67;8.00;;;;;;;;5027646;28;47320;-85
2021/08/26 03:24:04;;;;;;;;;10.67;9.33;;;;;;;;5021067;28;45426;-85
2021/08/26 03:26:29;;;;;;;;;10.00;9.00;;;;;;;;5019215;28;45515;-85
2021/08/26 03:28:55;;;;;;;;;11.50;9.00;;;;;;;;5026467;28;45511;-86
2021/08/26 03:31:20;;;;;;;;;15.67;9.00;;;;;;;;5024749;28;45346;-85
2021/08/26 03:33:45;;;;;;;;;13.00;9.00;;;;;;;;5476812;22;45703;-81
2021/08/26 03:36:13;;;;;;;;;9.50;7.25;;;;;;;;5039951;28;45829;-82
2021/08/26 03:38:39;;;;;;;;;9.50;6.50;;;;;;;;5043676;28;45726;-81
2021/08/26 03:41:04;;;;;;;;;10.25;8.75;;;;;;;;5024656;28;47296;-82
2021/08/26 03:43:29;;;;;;;;;12.25;8.25;;;;;;;;5043394;28;45469;-81
2021/08/26 03:45:55;;;;;;;;;10.25;8.00;;;;;;;;5043008;28;45716;-81
2021/08/26 03:48:20;;;;;;;;;9.00;6.00;;;;;;;;5044003;28;45606;-81
2021/08/26 03:50:45;;;;;;;;;10.00;7.00;;;;;;;;5019693;28;48003;-81
2021/08/26 03:53:10;;;;;;;;;8.00;7.00;;;;;;;;5048346;28;45640;-82
2021/08/26 03:55:36;;;;;;;;;6.67;6.67;;;;;;;;5042563;28;45489;-82
2021/08/26 04:01:06;;;;;;;;;9.50;5.75;;;;;;;;5026590;28;46269;-81
2021/08/26 04:03:32;;;;;;;;;8.50;7.75;;;;;;;;5023122;28;46387;-82
2021/08/26 04:05:57;;;;;;;;;7.00;7.00;;;;;;;;5039638;28;45715;-82
2021/08/26 04:08:23;;;;;;;;;7.50;6.25;;;;;;;;5045510;28;45520;-82
2021/08/26 04:10:48;;;;;;;;;6.50;5.75;;;;;;;;5025100;28;47724;-81
2021/08/26 04:13:14;;;;;;;;;9.67;7.00;;;;;;;;5037230;28;46202;-81
2021/08/26 04:15:39;;;;;;;;;6.25;6.00;;;;;;;;5026409;28;45569;-82
2021/08/26 04:18:04;;;;;;;;;11.00;7.50;;;;;;;;5043068;28;46175;-82
2021/08/26 04:20:29;;;;;;;;;14.00;9.00;;;;;;;;5038805;28;45568;-81
2021/08/26 04:22:55;;;;;;;;;7.00;6.00;;;;;;;;5045771;28;45544;-82
2021/08/26 04:25:20;;;;;;;;;8.00;6.33;;;;;;;;5017870;28;45824;-81
2021/08/26 04:27:45;;;;;;;;;9.25;6.00;;;;;;;;5041525;28;45429;-81
2021/08/26 04:30:10;;;;;;;;;9.00;6.00;;;;;;;;5021341;28;46980;-81
2021/08/26 04:32:35;;;;;;;;;5.25;4.50;;;;;;;;5038708;28;45463;-81
2021/08/26 04:35:01;;;;;;;;;7.33;6.00;;;;;;;;5043884;28;45680;-82
2021/08/26 04:37:26;;;;;;;;;7.00;6.00;;;;;;;;5039494;28;45664;-82
2021/08/26 04:39:52;;;;;;;;;7.00;6.00;;;;;;;;5024208;28;46993;-82
2021/08/26 04:42:17;;;;;;;;;7.00;6.00;;;;;;;;5017355;28;45623;-82
2021/08/26 04:44:42;;;;;;;;;7.00;5.67;;;;;;;;5036667;28;45628;-82
2021/08/26 04:47:07;;;;;;;;;12.33;6.33;;;;;;;;5044412;28;46420;-81
2021/08/26 04:49:32;;;;;;;;;9.00;6.00;;;;;;;;5038706;28;46121;-81
2021/08/26 04:51:58;;;;;;;;;5.67;4.00;;;;;;;;5034885;28;47052;-82
2021/08/26 04:54:23;;;;;;;;;6.67;5.00;;;;;;;;5036731;28;45679;-82
2021/08/26 04:56:48;;;;;;;;;7.25;5.00;;;;;;;;5037840;28;46143;-82
2021/08/26 04:59:13;;;;;;;;;5.25;2.25;;;;;;;;5026984;28;49164;-81
2021/08/26 05:01:38;;;;;;;;;6.00;5.00;;;;;;;;5016316;28;45913;-82
2021/08/26 05:04:04;;;;;;;;;2.67;2.67;;;;;;;;5036910;28;45499;-81
2021/08/26 05:06:33;;;;;;;;;5.00;3.00;;;;;;;;5040121;28;45601;-81
2021/08/26 05:08:58;;;;;;;;;5.50;3.75;;;;;;;;5034445;28;45581;-81
2021/08/26 05:11:24;;;;;;;;;4.00;4.00;;;;;;;;5039351;28;45561;-80
2021/08/26 05:13:49;;;;;;;;;5.25;3.00;;;;;;;;5038761;28;45691;-81
2021/08/26 05:16:14;;;;;;;;;3.00;3.00;;;;;;;;5036576;28;45431;-83
2021/08/26 05:18:39;;;;;;;;;2.00;2.00;;;;;;;;5044544;28;46163;-83
2021/08/26 05:21:05;;;;;;;;;3.50;3.50;;;;;;;;5036276;28;47782;-83
2021/08/26 05:23:30;;;;;;;;;6.50;2.00;;;;;;;;5040633;28;46180;-83
2021/08/26 05:25:55;;;;;;;;;2.50;2.50;;;;;;;;5040646;28;45641;-82
2021/08/26 05:28:20;;;;;;;;;4.33;2.33;;;;;;;;5016723;28;47325;-84
2021/08/26 05:30:46;;;;;;;;;5.00;3.00;;;;;;;;5040966;28;51542;-83
2021/08/26 05:36:02;;;;;;;;;4.00;2.00;;;;;;;;5039333;28;45506;-84
2021/08/26 05:38:27;;;;;;;;;2.50;2.25;;;;;;;;5014963;28;48619;-83
2021/08/26 05:40:52;;;;;;;;;3.00;2.00;;;;;;;;5042253;28;45804;-84
2021/08/26 05:43:18;;;;;;;;;4.67;2.00;;;;;;;;5021017;28;45668;-83
2021/08/26 05:45:43;;;;;;;;;2.00;2.00;;;;;;;;5039737;28;46166;-83
2021/08/26 05:48:08;;;;;;;;;4.00;2.00;;;;;;;;5039839;28;46176;-83
2021/08/26 05:50:33;;;;;;;;;3.25;1.50;;;;;;;;5039440;28;46200;-84
2021/08/26 05:52:59;;;;;;;;;2.75;2.50;;;;;;;;5021209;28;45531;-84
2021/08/26 05:55:24;;;;;;;;;3.00;1.75;;;;;;;;5035695;28;50976;-84
2021/08/26 05:57:49;;;;;;;;;3.00;2.00;;;;;;;;5025369;28;46382;-83
2021/08/26 06:00:15;;;;;;;;;4.00;3.00;;;;;;;;5037811;28;46386;-83
2021/08/26 06:02:40;;;;;;;;;2.25;2.00;;;;;;;;5038673;28;46001;-84
2021/08/26 06:05:06;;;;;;;;;3.25;2.00;;;;;;;;5041029;28;45548;-83
2021/08/26 06:07:31;;;;;;;;;3.75;2.25;;;;;;;;5035828;28;46633;-83
2021/08/26 06:09:56;;;;;;;;;5.00;2.00;;;;;;;;5018064;28;46994;-83
2021/08/26 06:18:30;;;;;;;;;2.00;2.00;;;;;;;;4937521;28;46522;-85
2021/08/26 06:20:55;;;;;;;;;1.25;1.25;;;;;;;;4934950;28;46041;-85
2021/08/26 06:23:20;;;;;;;;;1.75;1.75;;;;;;;;4942649;28;45743;-85
2021/08/26 06:25:45;;;;;;;;;7.00;2.00;;;;;;;;4941023;28;45452;-81
2021/08/26 06:28:11;;;;;;;;;2.00;2.00;;;;;;;;4923926;28;46884;-79
2021/08/26 06:30:37;;;;;;;;;2.50;2.00;;;;;;;;4941137;28;45579;-81
2021/08/26 06:33:03;;;;;;;;;2.33;2.33;;;;;;;;4938666;28;46411;-79
2021/08/26 06:35:28;;;;;;;;;3.50;2.00;;;;;;;;4943943;28;45562;-80
2021/08/26 06:37:53;;;;;;;;;1.75;1.75;;;;;;;;4951134;28;45699;-80
2021/08/26 06:40:19;;;;;;;;;7.00;2.75;;;;;;;;4961343;28;45631;-80
2021/08/26 06:42:44;;;;;;;;;3.50;3.00;;;;;;;;4941168;28;45928;-80
2021/08/26 06:45:10;;;;;;;;;3.25;3.00;;;;;;;;4940637;28;45452;-80
2021/08/26 06:47:35;;;;;;;;;3.00;2.00;;;;;;;;4944912;28;46074;-81
2021/08/26 06:50:00;;;;;;;;;1.75;1.75;;;;;;;;4943590;28;45562;-80
2021/08/26 06:52:25;;;;;;;;;3.00;2.00;;;;;;;;4937972;28;45764;-81
2021/08/26 06:54:51;;;;;;;;;3.00;2.00;;;;;;;;4952313;28;45478;-79
2021/08/26 06:57:16;;;;;;;;;2.33;2.33;;;;;;;;5043342;28;46790;-81
2021/08/26 06:59:41;;;;;;;;;2.00;2.00;;;;;;;;5038966;28;45649;-80
2021/08/26 07:02:07;;;;;;;;;5.00;1.67;;;;;;;;5051194;28;45587;-80
2021/08/26 07:04:32;;;;;;;;;2.00;2.00;;;;;;;;5043766;28;45542;-80
2021/08/26 07:06:57;;;;;;;;;2.50;2.00;;;;;;;;5044519;28;55377;-79
2021/08/26 07:09:23;;;;;;;;;1.00;1.00;;;;;;;;5031258;28;45744;-79
2021/08/26 07:11:49;;;;;;;;;2.00;2.00;;;;;;;;5041959;28;45418;-79
2021/08/26 07:14:14;;;;;;;;;4.25;2.00;;;;;;;;5088034;22;45411;-91
2021/08/26 07:16:40;;;;;;;;;2.00;2.00;;;;;;;;5074741;27;46636;-92
2021/08/26 07:19:05;;;;;;;;;6.50;2.75;;;;;;;;5062323;27;45455;-92
2021/08/26 07:21:30;;;;;;;;;5.25;2.00;;;;;;;;5074828;27;45354;-92
2021/08/26 07:23:55;;;;;;;;;2.00;2.00;;;;;;;;5067973;28;45589;-92
2021/08/26 07:26:21;;;;;;;;;3.00;3.00;;;;;;;;5058252;28;47025;-92
2021/08/26 07:28:46;;;;;;;;;4.00;2.00;;;;;;;;5059814;28;45405;-91
2021/08/26 07:31:11;;;;;;;;;3.75;1.75;;;;;;;;5063838;27;45456;-91
2021/08/26 07:33:37;;;;;;;;;1.75;1.75;;;;;;;;5100193;22;45423;-79
2021/08/26 07:36:02;;;;;;;;;3.67;2.00;;;;;;;;5058007;27;45593;-78
2021/08/26 07:45:03;;;;;;;;;4.25;3.00;;;;;;;;4886912;28;48480;-77
2021/08/26 07:47:31;;;;;;;;;2.50;2.00;;;;;;;;4887681;28;46357;-80
2021/08/26 07:49:57;;;;;;;;;4.00;2.00;;;;;;;;4889357;28;45704;-78
2021/08/26 07:52:22;;;;;;;;;3.75;2.25;;;;;;;;4892374;28;45472;-78
2021/08/26 07:54:47;;;;;;;;;3.50;1.50;;;;;;;;4889793;28;45632;-78
2021/08/26 07:57:12;;;;;;;;;1.67;1.00;;;;;;;;4882607;28;46306;-78
2021/08/26 07:59:38;;;;;;;;;3.00;2.00;;;;;;;;4894319;28;54965;-78
2021/08/26 08:02:03;;;;;;;;;2.00;2.00;;;;;;;;4890865;28;45643;-79
2021/08/26 08:04:31;;;;;;;;;3.00;3.00;;;;;;;;4899203;28;45560;-80
2021/08/26 08:06:56;;;;;;;;;3.50;2.00;;;;;;;;4906331;28;45403;-80
2021/08/26 08:09:22;;;;;;;;;4.00;4.00;;;;;;;;4893111;28;45495;-78
2021/08/26 08:11:47;;;;;;;;;4.00;3.00;;;;;;;;4897173;28;45417;-78
2021/08/26 08:14:12;;;;;;;;;5.50;2.00;;;;;;;;4879633;28;46249;-78
2021/08/26 08:16:37;;;;;;;;;6.50;4.00;;;;;;;;4884675;28;46241;-79
2021/08/26 08:19:03;;;;;;;;;7.00;4.00;;;;;;;;4966157;28;45544;-79
2021/08/26 08:21:28;;;;;;;;;4.50;4.00;;;;;;;;5050676;27;45677;-78
2021/08/26 08:23:53;;;;;;;;;4.00;4.00;;;;;;;;5050948;27;45773;-80
2021/08/26 08:26:18;;;;;;;;;4.67;3.33;;;;;;;;5060932;27;45413;-78
2021/08/26 08:28:44;;;;;;;;;7.00;4.00;;;;;;;;5051903;27;45488;-79
2021/08/26 08:31:09;;;;;;;;;5.50;5.50;;;;;;;;5059389;27;45460;-80
2021/08/26 08:33:35;;;;;;;;;6.00;4.00;;;;;;;;5058270;27;45646;-80
2021/08/26 08:36:00;;;;;;;;;3.00;3.00;;;;;;;;5045233;27;45459;-79
2021/08/26 08:38:26;;;;;;;;;5.25;3.75;;;;;;;;5056784;27;45488;-80
2021/08/26 08:40:51;;;;;;;;;2.75;1.50;;;;;;;;5063149;27;45522;-80
2021/08/26 08:43:16;;;;;;;;;5.50;4.00;;;;;;;;5053424;27;45609;-79
2021/08/26 08:45:45;;;;;;;;;3.00;3.00;;;;;;;;5060823;27;45422;-79
2021/08/26 08:48:11;;;;;;;;;7.00;3.00;;;;;;;;5053712;27;45501;-80
2021/08/26 08:50:38;;;;;;;;;3.25;3.25;;;;;;;;5054831;27;45507;-80
2021/08/26 08:53:03;;;;;;;;;4.25;4.25;;;;;;;;5050827;27;45745;-80
2021/08/26 08:55:29;;;;;;;;;4.50;3.75;;;;;;;;5071821;22;46283;-90
2021/08/26 08:57:54;;;;;;;;;4.00;4.00;;;;;;;;5036000;28;45555;-91
2021/08/26 09:00:19;;;;;;;;;5.33;3.67;;;;;;;;5055543;28;45465;-94
2021/08/26 09:02:44;;;;;;;;;4.50;3.75;;;;;;;;5055811;28;45689;-91
2021/08/26 09:05:10;;;;;;;;;4.75;4.75;;;;;;;;5037282;28;48463;-92
2021/08/26 09:07:36;;;;;;;;;3.75;3.75;;;;;;;;5035442;28;45730;-92
2021/08/26 09:10:02;;;;;;;;;6.75;5.00;;;;;;;;5056463;28;44874;-92
2021/08/26 09:12:40;;;;;;;;;6.25;4.00;;;;;;;;5033881;28;45786;-91
2021/08/26 09:15:16;;;;;;;;;3.25;3.25;;;;;;;;5049057;28;46524;-91
2021/08/26 09:17:44;;;;;;;;;4.50;4.00;;;;;;;;5047208;28;45731;-93
2021/08/26 09:20:10;;;;;;;;;5.50;5.50;;;;;;;;5046785;28;45316;-91
2021/08/26 09:22:36;;;;;;;;;9.75;5.00;;;;;;;;5044733;28;47124;-91
2021/08/26 09:25:01;;;;;;;;;4.25;4.25;;;;;;;;5045856;28;46311;-91
2021/08/26 09:27:37;;;;;;;;;6.00;6.00;;;;;;;;5050183;28;45430;-94
2021/08/26 09:30:02;;;;;;;;;5.25;4.50;;;;;;;;5028807;28;45944;-92
2021/08/26 09:32:36;;;;;;;;;3.75;3.00;;;;;;;;5028748;28;45466;-90
2021/08/26 09:35:31;;;;;;;;;6.50;4.00;;;;;;;;5046597;28;45577;-89
2021/08/26 09:38:01;;;;;;;;;4.00;4.00;;;;;;;;5042097;28;45572;-93
2021/08/26 09:40:30;;;;;;;;;3.00;3.00;;;;;;;;5042252;28;45431;-92
2021/08/26 09:43:00;;;;;;;;;4.75;3.25;;;;;;;;5046611;28;45748;-93
2021/08/26 09:45:30;;;;;;;;;5.75;3.25;;;;;;;;5050607;28;46437;-91
2021/08/26 09:48:04;;;;;;;;;5.50;5.00;;;;;;;;5048273;28;45556;-93
2021/08/26 09:50:44;;;;;;;;;5.00;4.00;;;;;;;;5046632;28;45565;-91
2021/08/26 09:53:10;;;;;;;;;3.00;3.00;;;;;;;;5032783;28;45581;-91
2021/08/26 09:55:48;;;;;;;;;3.25;2.50;;;;;;;;5049300;28;47311;-92
2021/08/26 09:58:14;;;;;;;;;2.50;2.50;;;;;;;;5051446;28;45468;-94
2021/08/26 10:00:42;;;;;;;;;5.00;3.00;;;;;;;;5068666;22;45620;-86
2021/08/26 10:03:10;;;;;;;;;2.75;2.75;;;;;;;;5045299;28;45699;-85
2021/08/26 10:05:36;;;;;;;;;3.50;2.75;;;;;;;;5046659;27;47056;-85
2021/08/26 10:08:01;;;;;;;;;2.00;2.00;;;;;;;;5049594;27;46148;-85
2021/08/26 10:10:27;;;;;;;;;1.75;1.75;;;;;;;;5041977;27;46300;-85
2021/08/26 10:12:52;;;;;;;;;2.00;2.00;;;;;;;;5045901;27;51197;-86
2021/08/26 10:15:17;;;;;;;;;5.00;4.00;;;;;;;;5044550;27;45501;-86
2021/08/26 10:17:44;;;;;;;;;3.50;2.00;;;;;;;;5042340;28;45437;-85
2021/08/26 10:20:10;;;;;;;;;1.25;1.25;;;;;;;;5045762;27;45623;-85
2021/08/26 10:22:35;;;;;;;;;1.75;1.25;;;;;;;;5046254;27;47410;-85
2021/08/26 10:25:01;;;;;;;;;1.50;0.50;;;;;;;;5057273;27;46381;-85
2021/08/26 10:27:27;;;;;;;;;1.00;1.00;;;;;;;;5050977;28;45556;-86
2021/08/26 10:29:52;;;;;;;;;2.00;2.00;;;;;;;;5045958;28;45608;-86
2021/08/26 10:32:19;;;;;;;;;1.00;1.00;;;;;;;;5051825;27;45559;-84
2021/08/26 10:35:03;;;;;;;;;1.75;1.75;;;;;;;;5050058;27;45624;-86
2021/08/26 10:37:41;;;;;;;;;1.25;1.25;;;;;;;;5046711;27;45573;-85
2021/08/26 10:40:27;;;;;;;;;1.75;1.00;;;;;;;;5043756;28;45808;-85
2021/08/26 10:42:53;;;;;;;;;2.25;2.25;;;;;;;;5055395;27;45644;-85
2021/08/26 10:45:26;;;;;;;;;1.25;1.25;;;;;;;;5049486;27;45598;-85
2021/08/26 10:47:53;;;;;;;;;1.00;1.00;;;;;;;;5046461;27;45671;-85
2021/08/26 10:50:21;;;;;;;;;2.50;1.50;;;;;;;;5044024;27;45595;-85
2021/08/26 10:53:08;;;;;;;;;3.00;1.00;;;;;;;;5043675;27;45770;-85
2021/08/26 10:55:38;;;;;;;;;2.00;2.00;;;;;;;;5047479;27;46015;-86
2021/08/26 10:58:26;;;;;;;;;2.25;2.25;;;;;;;;5052060;27;45626;-85
2021/08/26 11:00:51;;;;;;;;;0.50;0.50;;;;;;;;5050616;27;45671;-85
2021/08/26 11:03:34;;;;;;;;;0.00;0.00;;;;;;;;5044931;27;46433;-84
2021/08/26 11:05:59;;;;;;;;;1.00;1.00;;;;;;;;5041723;27;45588;-86
2021/08/26 11:08:30;;;;;;;;;1.67;0.33;;;;;;;;5046201;28;45543;-85
2021/08/26 11:10:56;;;;;;;;;2.75;1.00;;;;;;;;5046444;27;46677;-84
2021/08/26 11:13:35;;;;;;;;;0.00;0.00;;;;;;;;5044381;27;45636;-84
2021/08/26 11:16:19;;;;;;;;;0.50;0.50;;;;;;;;5048616;27;45521;-84
2021/08/26 11:18:44;;;;;;;;;0.50;0.50;;;;;;;;5054147;27;45661;-84
2021/08/26 11:21:10;;;;;;;;;1.00;1.00;;;;;;;;5042291;27;45494;-84
2021/08/26 11:23:45;;;;;;;;;1.50;1.50;;;;;;;;5049522;27;45605;-84
2021/08/26 11:26:29;;;;;;;;;1.25;1.25;;;;;;;;5053062;27;46171;-84
2021/08/26 11:28:54;;;;;;;;;3.25;1.50;;;;;;;;5052869;27;45523;-84
2021/08/26 11:31:21;;;;;;;;;2.00;2.00;;;;;;;;5046048;27;45451;-84
2021/08/26 11:33:46;;;;;;;;;2.75;1.50;;;;;;;;5052634;27;49604;-83
2021/08/26 11:36:13;;;;;;;;;3.00;3.00;;;;;;;;5049208;28;46465;-84
2021/08/26 11:38:45;;;;;;;;;5.50;5.50;;;;;;;;5047588;27;45762;-84
2021/08/26 11:41:11;;;;;;;;;4.75;3.00;;;;;;;;5056526;27;45541;-84
2021/08/26 11:43:40;;;;;;;;;4.25;4.25;;;;;;;;5052167;27;45795;-84
2021/08/26 11:46:20;;;;;;;;;;;;;;;;;;;;;
2021/08/26 11:48:49;;;;;;;;;3.25;3.25;;;;;;;;5047663;28;72959;-84
2021/08/26 11:51:22;;;;;;;;;4.75;4.00;;;;;;;;5048074;27;45516;-84
2021/08/26 11:53:47;;;;;;;;;3.75;3.75;;;;;;;;5056894;27;45836;-84
2021/08/26 11:56:12;;;;;;;;;5.00;5.00;;;;;;;;5056571;27;46939;-84
2021/08/26 11:58:38;;;;;;;;;4.75;4.75;;;;;;;;5046183;27;45489;-83
2021/08/26 12:01:03;;;;;;;;;8.33;4.33;;;;;;;;5052079;27;45699;-84
2021/08/26 12:03:28;;;;;;;;;4.33;4.33;;;;;;;;5050667;27;48935;-84
2021/08/26 12:05:54;;;;;;;;;6.75;2.75;;;;;;;;5049109;27;46562;-84
2021/08/26 12:08:20;;;;;;;;;3.25;3.25;;;;;;;;5049812;27;44856;-84
2021/08/26 12:10:47;;;;;;;;;3.50;3.50;;;;;;;;5046074;27;45540;-83
2021/08/26 12:13:16;;;;;;;;;3.00;2.50;;;;;;;;5055734;28;45536;-85
2021/08/26 12:15:43;;;;;;;;;5.50;2.75;;;;;;;;5058977;27;47033;-85
2021/08/26 12:18:13;;;;;;;;;7.75;3.75;;;;;;;;5046456;27;45747;-87
2021/08/26 12:20:46;;;;;;;;;4.50;2.00;;;;;;;;5051450;27;45541;-85
2021/08/26 12:23:15;;;;;;;;;2.00;2.00;;;;;;;;5052105;27;47018;-86
2021/08/26 12:25:41;;;;;;;;;3.50;2.75;;;;;;;;5051669;27;45516;-86
2021/08/26 12:28:07;;;;;;;;;3.75;3.75;;;;;;;;5044227;28;46008;-86
2021/08/26 12:30:40;;;;;;;;;5.00;3.75;;;;;;;;5048446;27;45342;-86
2021/08/26 12:33:10;;;;;;;;;4.25;3.75;;;;;;;;5044464;27;46092;-85
2021/08/26 12:35:39;;;;;;;;;4.00;4.00;;;;;;;;5045551;27;46761;-87
2021/08/26 12:38:04;;;;;;;;;2.75;2.75;;;;;;;;5054409;28;45596;-86
2021/08/26 12:40:30;;;;;;;;;4.00;3.67;;;;;;;;5045321;27;45518;-86
2021/08/26 12:43:00;;;;;;;;;3.75;3.75;;;;;;;;5050098;28;45719;-89
2021/08/26 12:45:26;;;;;;;;;2.75;2.75;;;;;;;;5048548;28;45568;-85
2021/08/26 12:47:51;;;;;;;;;2.00;1.75;;;;;;;;5043449;28;45528;-85
2021/08/26 12:50:27;;;;;;;;;3.50;3.50;;;;;;;;5046945;28;45598;-87
2021/08/26 12:52:52;;;;;;;;;5.50;2.75;;;;;;;;5044364;28;45362;-86
2021/08/26 12:55:18;;;;;;;;;8.00;5.00;;;;;;;;5049216;28;46232;-85
2021/08/26 12:57:43;;;;;;;;;6.50;4.75;;;;;;;;5045303;27;45757;-85
2021/08/26 13:00:09;;;;;;;;;9.00;5.00;;;;;;;;5045932;28;45646;-85
2021/08/26 13:02:49;;;;;;;;;6.25;6.25;;;;;;;;5046371;27;45657;-84
2021/08/26 13:05:14;;;;;;;;;5.50;4.00;;;;;;;;5048008;27;46583;-86
2021/08/26 13:07:40;;;;;;;;;7.00;5.00;;;;;;;;5045902;28;45675;-85
2021/08/26 13:10:06;;;;;;;;;7.00;5.50;;;;;;;;5045158;28;46402;-85
2021/08/26 13:12:34;;;;;;;;;6.75;5.00;;;;;;;;5047022;27;44859;-86
2021/08/26 13:15:17;;;;;;;;;7.50;5.75;;;;;;;;5051171;27;46328;-87
2021/08/26 13:17:42;;;;;;;;;6.00;4.00;;;;;;;;5044072;28;45489;-85
2021/08/26 13:20:08;;;;;;;;;7.33;5.67;;;;;;;;5048180;28;45579;-85
2021/08/26 13:22:35;;;;;;;;;5.50;4.00;;;;;;;;5043606;27;45519;-85
2021/08/26 13:25:05;;;;;;;;;7.75;5.00;;;;;;;;5051329;27;46225;-85
2021/08/26 13:27:30;;;;;;;;;7.75;5.75;;;;;;;;5049753;28;46003;-85
2021/08/26 13:29:56;;;;;;;;;3.75;3.75;;;;;;;;5040437;28;45738;-85
2021/08/26 13:32:22;;;;;;;;;4.75;4.00;;;;;;;;5070625;27;46352;-85
2021/08/26 13:34:47;;;;;;;;;10.00;4.50;;;;;;;;5054191;27;46288;-86
2021/08/26 13:37:13;;;;;;;;;5.50;4.75;;;;;;;;5054716;27;45523;-87
2021/08/26 13:39:41;;;;;;;;;7.50;5.50;;;;;;;;5054257;27;45594;-85
2021/08/26 13:42:06;;;;;;;;;6.50;5.75;;;;;;;;5052032;27;45649;-85
2021/08/26 13:44:32;;;;;;;;;5.50;5.00;;;;;;;;5052264;28;45590;-85
2021/08/26 13:47:57;;;;;;;;;6.00;4.50;;;;;;;;5062096;27;46104;-85
2021/08/26 13:50:03;;;;;;;;;6.75;5.00;;;;;;;;5039756;28;45650;-85
2021/08/26 13:52:29;;;;;;;;;6.50;5.50;;;;;;;;5047601;27;45593;-86
2021/08/26 13:54:54;;;;;;;;;4.75;4.75;;;;;;;;5055381;27;45504;-84
2021/08/26 13:57:20;;;;;;;;;6.25;5.50;;;;;;;;5055417;27;45511;-86
2021/08/26 13:59:45;;;;;;;;;7.00;6.25;;;;;;;;5045210;27;45579;-86
2021/08/26 14:02:11;;;;;;;;;6.75;5.25;;;;;;;;5056541;28;45649;-85
2021/08/26 14:04:36;;;;;;;;;7.25;4.50;;;;;;;;5046822;28;46522;-85
2021/08/26 14:07:01;;;;;;;;;6.75;4.50;;;;;;;;5046907;27;45756;-85
2021/08/26 14:09:26;;;;;;;;;8.75;4.50;;;;;;;;5057691;28;45537;-84
2021/08/26 14:11:52;;;;;;;;;6.33;5.00;;;;;;;;5050236;27;45476;-86
2021/08/26 14:14:17;;;;;;;;;5.25;5.25;;;;;;;;5054256;27;46636;-84
2021/08/26 14:16:42;;;;;;;;;7.50;7.25;;;;;;;;5050903;28;45580;-84
2021/08/26 14:19:08;;;;;;;;;10.00;6.50;;;;;;;;5044684;28;45480;-86
2021/08/26 14:21:33;;;;;;;;;7.33;4.33;;;;;;;;5054581;28;45619;-86
2021/08/26 14:23:59;;;;;;;;;5.75;5.00;;;;;;;;5049210;27;45528;-84
2021/08/26 14:26:24;;;;;;;;;6.50;4.50;;;;;;;;5048358;27;45435;-85
2021/08/26 14:28:49;;;;;;;;;5.75;5.00;;;;;;;;5048770;27;45522;-85
2021/08/26 14:31:14;;;;;;;;;7.75;6.50;;;;;;;;5044659;27;45585;-85
2021/08/26 14:33:40;;;;;;;;;7.33;5.00;;;;;;;;5053507;27;46206;-85
2021/08/26 14:36:06;;;;;;;;;5.75;4.50;;;;;;;;5050495;27;45532;-85
2021/08/26 14:38:32;;;;;;;;;8.25;5.00;;;;;;;;5048286;28;45534;-85
2021/08/26 14:40:57;;;;;;;;;7.50;6.00;;;;;;;;5050494;27;45737;-84
2021/08/26 14:43:25;;;;;;;;;5.00;4.67;;;;;;;;5050907;27;46094;-85
2021/08/26 14:45:50;;;;;;;;;8.25;4.00;;;;;;;;5056772;27;45795;-86
2021/08/26 14:48:16;;;;;;;;;9.75;4.75;;;;;;;;5048164;28;45639;-86
2021/08/26 14:50:41;;;;;;;;;5.50;5.50;;;;;;;;5047701;28;45659;-86
2021/08/26 14:53:06;;;;;;;;;5.00;4.50;;;;;;;;5058304;28;45830;-86
2021/08/26 14:55:32;;;;;;;;;4.75;3.50;;;;;;;;5052714;27;45607;-85
2021/08/26 14:58:00;;;;;;;;;6.00;3.25;;;;;;;;5053804;27;45664;-85
2021/08/26 15:00:26;;;;;;;;;4.00;4.00;;;;;;;;5056117;27;45569;-86
2021/08/26 15:02:51;;;;;;;;;7.00;4.50;;;;;;;;5051629;28;45542;-87
2021/08/26 15:05:16;;;;;;;;;4.25;4.25;;;;;;;;5055174;28;45588;-85